sensor_id;sensor_type;location;lat;lon;timestamp;pressure;altitude;pressure_sealevel;temperature;humidity
61682;BME280;47577;43.610;25.010;2023-04-10T00:01:07;100789.97;;;5.44;80.86
61682;BME280;47577;43.610;25.010;2023-04-10T00:03:33;100783.81;;;5.42;80.22
61682;BME280;47577;43.610;25.010;2023-04-10T00:05:58;100789.13;;;5.38;81.36
61682;BME280;47577;43.610;25.010;2023-04-10T00:08:24;100793.50;;;5.42;81.51
61682;BME280;47577;43.610;25.010;2023-04-10T00:10:50;100799.59;;;5.48;80.68
61682;BME280;47577;43.610;25.010;2023-04-10T00:13:18;100787.34;;;5.44;80.64
61682;BME280;47577;43.610;25.010;2023-04-10T00:15:44;100788.16;;;5.53;80.29
61682;BME280;47577;43.610;25.010;2023-04-10T00:18:10;100787.28;;;5.49;80.37
61682;BME280;47577;43.610;25.010;2023-04-10T00:20:36;100792.56;;;5.49;80.90
61682;BME280;47577;43.610;25.010;2023-04-10T00:23:02;100787.25;;;5.54;80.95
61682;BME280;47577;43.610;25.010;2023-04-10T00:25:27;100778.47;;;5.55;80.29
61682;BME280;47577;43.610;25.010;2023-04-10T00:27:53;100788.16;;;5.51;81.72
61682;BME280;47577;43.610;25.010;2023-04-10T00:30:19;100781.19;;;5.41;81.78
61682;BME280;47577;43.610;25.010;2023-04-10T00:32:46;100763.59;;;5.44;81.89
61682;BME280;47577;43.610;25.010;2023-04-10T00:35:11;100783.72;;;5.59;82.43
61682;BME280;47577;43.610;25.010;2023-04-10T00:37:37;100791.56;;;5.68;83.20
61682;BME280;47577;43.610;25.010;2023-04-10T00:40:03;100772.22;;;5.66;82.96
61682;BME280;47577;43.610;25.010;2023-04-10T00:42:31;100771.22;;;5.81;80.27
61682;BME280;47577;43.610;25.010;2023-04-10T00:44:57;100774.00;;;5.66;81.15
61682;BME280;47577;43.610;25.010;2023-04-10T00:47:23;100760.03;;;5.50;81.93
61682;BME280;47577;43.610;25.010;2023-04-10T00:49:49;100771.41;;;5.57;81.77
61682;BME280;47577;43.610;25.010;2023-04-10T00:52:15;100774.03;;;5.60;81.65
61682;BME280;47577;43.610;25.010;2023-04-10T00:54:41;100767.00;;;5.59;81.33
61682;BME280;47577;43.610;25.010;2023-04-10T00:57:08;100770.47;;;5.65;81.03
61682;BME280;47577;43.610;25.010;2023-04-10T00:59:34;100770.53;;;5.58;82.10
61682;BME280;47577;43.610;25.010;2023-04-10T01:02:00;100756.44;;;5.59;81.52
61682;BME280;47577;43.610;25.010;2023-04-10T01:04:27;100763.47;;;5.63;81.83
61682;BME280;47577;43.610;25.010;2023-04-10T01:07:09;100762.59;;;5.64;82.68
61682;BME280;47577;43.610;25.010;2023-04-10T01:12:39;100764.28;;;5.68;82.05
61682;BME280;47577;43.610;25.010;2023-04-10T01:18:18;100753.75;;;5.65;82.16
61682;BME280;47577;43.610;25.010;2023-04-10T01:20:30;100744.19;;;5.55;82.71
61682;BME280;47577;43.610;25.010;2023-04-10T01:25:42;100752.06;;;5.59;82.58
61682;BME280;47577;43.610;25.010;2023-04-10T01:28:20;100756.50;;;5.56;82.70
61682;BME280;47577;43.610;25.010;2023-04-10T01:30:56;100744.22;;;5.48;83.57
61682;BME280;47577;43.610;25.010;2023-04-10T01:33:33;100742.44;;;5.52;83.45
61682;BME280;47577;43.610;25.010;2023-04-10T01:36:02;100750.31;;;5.57;82.90
61682;BME280;47577;43.610;25.010;2023-04-10T01:38:29;100741.50;;;5.59;82.76
61682;BME280;47577;43.610;25.010;2023-04-10T01:40:57;100743.22;;;5.62;82.77
61682;BME280;47577;43.610;25.010;2023-04-10T01:43:25;100741.47;;;5.64;82.44
61682;BME280;47577;43.610;25.010;2023-04-10T01:45:51;100750.19;;;5.72;83.08
61682;BME280;47577;43.610;25.010;2023-04-10T01:48:20;100754.53;;;5.79;83.14
61682;BME280;47577;43.610;25.010;2023-04-10T01:50:46;100752.84;;;5.72;82.12
61682;BME280;47577;43.610;25.010;2023-04-10T01:53:13;100748.44;;;5.71;82.77
61682;BME280;47577;43.610;25.010;2023-04-10T01:55:40;100751.09;;;5.70;82.50
61682;BME280;47577;43.610;25.010;2023-04-10T01:58:06;100741.41;;;5.70;81.83
61682;BME280;47577;43.610;25.010;2023-04-10T02:00:40;100754.69;;;5.62;82.84
61682;BME280;47577;43.610;25.010;2023-04-10T02:03:07;100752.00;;;5.67;82.56
61682;BME280;47577;43.610;25.010;2023-04-10T02:08:56;100750.25;;;5.64;83.19
61682;BME280;47577;43.610;25.010;2023-04-10T02:14:00;100757.19;;;5.76;82.23
61682;BME280;47577;43.610;25.010;2023-04-10T02:16:28;100757.19;;;5.78;83.17
61682;BME280;47577;43.610;25.010;2023-04-10T02:18:56;100745.84;;;5.66;82.99
61682;BME280;47577;43.610;25.010;2023-04-10T02:21:23;100746.03;;;5.42;84.44
61682;BME280;47577;43.610;25.010;2023-04-10T02:23:49;100749.38;;;5.67;83.72
61682;BME280;47577;43.610;25.010;2023-04-10T02:26:15;100744.94;;;5.71;83.35
61682;BME280;47577;43.610;25.010;2023-04-10T02:28:40;100743.13;;;5.77;82.39
61682;BME280;47577;43.610;25.010;2023-04-10T02:31:06;100746.63;;;5.75;82.85
61682;BME280;47577;43.610;25.010;2023-04-10T02:33:32;100758.09;;;5.75;83.04
61682;BME280;47577;43.610;25.010;2023-04-10T02:35:59;100758.09;;;5.75;84.15
61682;BME280;47577;43.610;25.010;2023-04-10T02:38:25;100758.06;;;5.80;83.23
61682;BME280;47577;43.610;25.010;2023-04-10T02:40:51;100750.97;;;5.85;82.91
61682;BME280;47577;43.610;25.010;2023-04-10T02:43:17;100751.91;;;5.75;83.13
61682;BME280;47577;43.610;25.010;2023-04-10T02:45:43;100757.13;;;5.82;83.06
61682;BME280;47577;43.610;25.010;2023-04-10T02:48:08;100750.22;;;5.69;83.50
61682;BME280;47577;43.610;25.010;2023-04-10T02:50:35;100748.38;;;5.80;83.54
61682;BME280;47577;43.610;25.010;2023-04-10T02:53:01;100737.84;;;5.74;82.96
61682;BME280;47577;43.610;25.010;2023-04-10T02:55:26;100734.41;;;5.69;82.88
61682;BME280;47577;43.610;25.010;2023-04-10T02:57:52;100743.16;;;5.70;83.04
61682;BME280;47577;43.610;25.010;2023-04-10T03:00:18;100749.38;;;5.64;83.33
61682;BME280;47577;43.610;25.010;2023-04-10T03:02:44;100748.63;;;5.48;84.07
61682;BME280;47577;43.610;25.010;2023-04-10T03:05:10;100751.22;;;5.53;84.10
61682;BME280;47577;43.610;25.010;2023-04-10T03:07:36;100751.22;;;5.56;84.33
61682;BME280;47577;43.610;25.010;2023-04-10T03:10:02;100750.31;;;5.54;83.94
61682;BME280;47577;43.610;25.010;2023-04-10T03:12:27;100745.06;;;5.54;83.52
61682;BME280;47577;43.610;25.010;2023-04-10T03:14:53;100746.84;;;5.52;83.39
61682;BME280;47577;43.610;25.010;2023-04-10T03:17:19;100754.75;;;5.48;83.34
61682;BME280;47577;43.610;25.010;2023-04-10T03:19:45;100752.13;;;5.48;84.31
61682;BME280;47577;43.610;25.010;2023-04-10T03:22:10;100752.09;;;5.52;83.62
61682;BME280;47577;43.610;25.010;2023-04-10T03:24:36;100755.63;;;5.50;84.33
61682;BME280;47577;43.610;25.010;2023-04-10T03:27:02;100750.31;;;5.54;83.78
61682;BME280;47577;43.610;25.010;2023-04-10T03:29:28;100753.91;;;5.48;83.22
61682;BME280;47577;43.610;25.010;2023-04-10T03:31:54;100751.25;;;5.49;83.08
61682;BME280;47577;43.610;25.010;2023-04-10T03:34:20;100757.41;;;5.47;82.82
61682;BME280;47577;43.610;25.010;2023-04-10T03:36:45;100748.66;;;5.42;83.42
61682;BME280;47577;43.610;25.010;2023-04-10T03:39:11;100761.84;;;5.40;83.95
61682;BME280;47577;43.610;25.010;2023-04-10T03:41:36;100761.84;;;5.40;84.01
61682;BME280;47577;43.610;25.010;2023-04-10T03:44:02;100754.00;;;5.28;83.86
61682;BME280;47577;43.610;25.010;2023-04-10T03:46:28;100762.84;;;5.27;84.20
61682;BME280;47577;43.610;25.010;2023-04-10T03:48:54;100758.44;;;5.26;83.98
61682;BME280;47577;43.610;25.010;2023-04-10T03:51:19;100759.31;;;5.26;83.87
61682;BME280;47577;43.610;25.010;2023-04-10T03:53:45;100761.91;;;5.29;83.92
61682;BME280;47577;43.610;25.010;2023-04-10T03:56:11;100756.69;;;5.25;84.39
61682;BME280;47577;43.610;25.010;2023-04-10T03:58:37;100758.44;;;5.21;84.44
61682;BME280;47577;43.610;25.010;2023-04-10T04:01:04;100762.88;;;5.21;85.37
61682;BME280;47577;43.610;25.010;2023-04-10T04:03:29;100760.22;;;5.19;85.59
61682;BME280;47577;43.610;25.010;2023-04-10T04:05:55;100768.97;;;5.26;85.50
61682;BME280;47577;43.610;25.010;2023-04-10T04:08:21;100777.72;;;5.31;85.55
61682;BME280;47577;43.610;25.010;2023-04-10T04:10:46;100773.34;;;5.35;84.58
61682;BME280;47577;43.610;25.010;2023-04-10T04:13:12;100768.00;;;5.42;84.63
61682;BME280;47577;43.610;25.010;2023-04-10T04:15:38;100767.13;;;5.40;84.89
61682;BME280;47577;43.610;25.010;2023-04-10T04:18:03;100771.50;;;5.47;84.59
61682;BME280;47577;43.610;25.010;2023-04-10T04:20:29;100774.97;;;5.51;84.10
61682;BME280;47577;43.610;25.010;2023-04-10T04:22:55;100775.00;;;5.49;84.47
61682;BME280;47577;43.610;25.010;2023-04-10T04:25:20;100781.06;;;5.59;84.84
61682;BME280;47577;43.610;25.010;2023-04-10T04:27:46;100774.00;;;5.64;84.74
61682;BME280;47577;43.610;25.010;2023-04-10T04:30:12;100789.75;;;5.78;84.10
61682;BME280;47577;43.610;25.010;2023-04-10T04:32:37;100772.16;;;5.74;84.88
61682;BME280;47577;43.610;25.010;2023-04-10T04:35:21;100778.22;;;5.85;84.77
61682;BME280;47577;43.610;25.010;2023-04-10T04:37:46;100779.88;;;6.00;84.14
61682;BME280;47577;43.610;25.010;2023-04-10T04:40:12;100777.16;;;6.13;83.66
61682;BME280;47577;43.610;25.010;2023-04-10T04:42:37;100784.19;;;6.12;83.50
61682;BME280;47577;43.610;25.010;2023-04-10T04:45:03;100774.50;;;6.14;83.83
61682;BME280;47577;43.610;25.010;2023-04-10T04:47:29;100784.94;;;6.25;83.55
61682;BME280;47577;43.610;25.010;2023-04-10T04:49:55;100790.13;;;6.36;83.53
61682;BME280;47577;43.610;25.010;2023-04-10T04:52:21;100772.47;;;6.38;83.25
61682;BME280;47577;43.610;25.010;2023-04-10T04:54:47;100784.66;;;6.54;83.09
61682;BME280;47577;43.610;25.010;2023-04-10T04:57:13;100779.22;;;6.67;82.84
61682;BME280;47577;43.610;25.010;2023-04-10T04:59:39;100769.34;;;6.81;81.93
61682;BME280;47577;43.610;25.010;2023-04-10T05:02:04;100777.00;;;7.03;81.43
61682;BME280;47577;43.610;25.010;2023-04-10T05:04:30;100787.31;;;7.24;80.66
61682;BME280;47577;43.610;25.010;2023-04-10T05:06:56;100773.94;;;7.32;80.43
61682;BME280;47577;43.610;25.010;2023-04-10T05:09:21;100780.78;;;7.50;79.25
61682;BME280;47577;43.610;25.010;2023-04-10T05:11:47;100783.16;;;7.65;80.05
61682;BME280;47577;43.610;25.010;2023-04-10T05:14:15;100772.47;;;7.73;79.33
61682;BME280;47577;43.610;25.010;2023-04-10T05:16:40;100789.81;;;7.91;78.31
61682;BME280;47577;43.610;25.010;2023-04-10T05:19:06;100796.53;;;8.11;77.81
61682;BME280;47577;43.610;25.010;2023-04-10T05:21:31;100794.53;;;8.25;77.95
61682;BME280;47577;43.610;25.010;2023-04-10T05:23:57;100779.41;;;8.32;79.76
61682;BME280;47577;43.610;25.010;2023-04-10T05:26:23;100788.91;;;8.42;78.88
61682;BME280;47577;43.610;25.010;2023-04-10T05:28:48;100791.47;;;8.48;78.28
61682;BME280;47577;43.610;25.010;2023-04-10T05:31:14;100800.03;;;8.63;78.06
61682;BME280;47577;43.610;25.010;2023-04-10T05:33:40;100789.28;;;8.72;78.47
61682;BME280;47577;43.610;25.010;2023-04-10T05:36:05;100792.59;;;8.83;77.35
61682;BME280;47577;43.610;25.010;2023-04-10T05:38:31;100794.38;;;8.81;75.51
61682;BME280;47577;43.610;25.010;2023-04-10T05:40:57;100788.91;;;8.89;76.61
61682;BME280;47577;43.610;25.010;2023-04-10T05:43:22;100795.72;;;9.02;76.17
61682;BME280;47577;43.610;25.010;2023-04-10T05:45:48;100797.38;;;9.08;75.31
61682;BME280;47577;43.610;25.010;2023-04-10T05:48:13;100788.47;;;9.10;74.74
61682;BME280;47577;43.610;25.010;2023-04-10T05:50:39;100797.16;;;9.19;73.66
61682;BME280;47577;43.610;25.010;2023-04-10T05:53:05;100783.81;;;9.22;73.55
61682;BME280;47577;43.610;25.010;2023-04-10T05:55:30;100783.84;;;9.20;73.62
61682;BME280;47577;43.610;25.010;2023-04-10T05:57:56;100787.97;;;9.33;74.72
61682;BME280;47577;43.610;25.010;2023-04-10T06:00:22;100783.50;;;9.36;72.71
61682;BME280;47577;43.610;25.010;2023-04-10T06:02:47;100778.13;;;9.39;72.42
61682;BME280;47577;43.610;25.010;2023-04-10T06:05:13;100779.94;;;9.37;71.24
61682;BME280;47577;43.610;25.010;2023-04-10T06:07:39;100788.06;;;9.29;70.23
61682;BME280;47577;43.610;25.010;2023-04-10T06:10:05;100782.63;;;9.35;72.59
61682;BME280;47577;43.610;25.010;2023-04-10T06:12:31;100791.13;;;9.51;72.15
61682;BME280;47577;43.610;25.010;2023-04-10T06:14:56;100790.84;;;9.62;71.59
61682;BME280;47577;43.610;25.010;2023-04-10T06:17:22;100780.13;;;9.66;73.15
61682;BME280;47577;43.610;25.010;2023-04-10T06:19:50;100787.88;;;9.76;70.65
61682;BME280;47577;43.610;25.010;2023-04-10T06:22:15;100779.84;;;9.79;70.95
61682;BME280;47577;43.610;25.010;2023-04-10T06:24:41;100774.38;;;9.85;71.03
61682;BME280;47577;43.610;25.010;2023-04-10T06:27:06;100788.09;;;10.02;71.89
61682;BME280;47577;43.610;25.010;2023-04-10T06:29:32;100784.38;;;10.10;71.13
61682;BME280;47577;43.610;25.010;2023-04-10T06:31:57;100776.97;;;10.22;71.82
61682;BME280;47577;43.610;25.010;2023-04-10T06:34:23;100775.63;;;10.40;71.18
61682;BME280;47577;43.610;25.010;2023-04-10T06:36:49;100783.31;;;10.51;70.97
61682;BME280;47577;43.610;25.010;2023-04-10T06:39:14;100781.31;;;10.59;70.21
61682;BME280;47577;43.610;25.010;2023-04-10T06:41:40;100787.38;;;10.65;69.79
61682;BME280;47577;43.610;25.010;2023-04-10T06:44:06;100787.72;;;10.84;69.41
61682;BME280;47577;43.610;25.010;2023-04-10T06:46:31;100779.03;;;10.77;69.54
61682;BME280;47577;43.610;25.010;2023-04-10T06:48:57;100781.91;;;11.01;69.60
61682;BME280;47577;43.610;25.010;2023-04-10T06:51:22;100796.50;;;11.17;69.20
61682;BME280;47577;43.610;25.010;2023-04-10T06:53:49;100798.94;;;11.25;68.07
61682;BME280;47577;43.610;25.010;2023-04-10T06:56:15;100794.59;;;11.50;69.03
61682;BME280;47577;43.610;25.010;2023-04-10T06:58:40;100786.25;;;11.61;67.96
61682;BME280;47577;43.610;25.010;2023-04-10T07:01:06;100789.66;;;11.66;67.23
61682;BME280;47577;43.610;25.010;2023-04-10T07:03:32;100793.63;;;11.81;66.79
61682;BME280;47577;43.610;25.010;2023-04-10T07:05:58;100807.06;;;11.77;66.27
61682;BME280;47577;43.610;25.010;2023-04-10T07:08:26;100796.53;;;11.74;65.75
61682;BME280;47577;43.610;25.010;2023-04-10T07:10:51;100802.09;;;11.66;66.14
61682;BME280;47577;43.610;25.010;2023-04-10T07:13:17;100791.13;;;11.48;64.91
61682;BME280;47577;43.610;25.010;2023-04-10T07:15:42;100802.44;;;11.55;66.61
61682;BME280;47577;43.610;25.010;2023-04-10T07:18:08;100791.69;;;11.58;65.14
61682;BME280;47577;43.610;25.010;2023-04-10T07:20:34;100795.13;;;11.62;66.28
61682;BME280;47577;43.610;25.010;2023-04-10T07:22:59;100796.75;;;11.66;64.98
61682;BME280;47577;43.610;25.010;2023-04-10T07:25:25;100794.81;;;11.71;66.77
61682;BME280;47577;43.610;25.010;2023-04-10T07:27:51;100800.56;;;11.85;66.26
61682;BME280;47577;43.610;25.010;2023-04-10T07:30:17;100794.56;;;12.07;65.84
61682;BME280;47577;43.610;25.010;2023-04-10T07:32:43;100807.38;;;12.22;66.53
61682;BME280;47577;43.610;25.010;2023-04-10T07:35:09;100796.34;;;12.33;65.20
61682;BME280;47577;43.610;25.010;2023-04-10T07:37:35;100800.41;;;12.43;66.27
61682;BME280;47577;43.610;25.010;2023-04-10T07:40:00;100794.88;;;12.50;64.23
61682;BME280;47577;43.610;25.010;2023-04-10T07:42:26;100786.34;;;12.65;65.65
61682;BME280;47577;43.610;25.010;2023-04-10T07:44:52;100791.09;;;12.80;62.48
61682;BME280;47577;43.610;25.010;2023-04-10T07:47:17;100790.53;;;12.96;63.39
61682;BME280;47577;43.610;25.010;2023-04-10T07:49:43;100791.63;;;12.90;62.38
61682;BME280;47577;43.610;25.010;2023-04-10T07:52:09;100800.03;;;13.03;61.94
61682;BME280;47577;43.610;25.010;2023-04-10T07:54:34;100788.03;;;13.15;64.95
61682;BME280;47577;43.610;25.010;2023-04-10T07:57:00;100786.75;;;13.25;61.18
61682;BME280;47577;43.610;25.010;2023-04-10T07:59:26;100794.25;;;13.39;62.27
61682;BME280;47577;43.610;25.010;2023-04-10T08:01:53;100789.41;;;13.49;61.79
61682;BME280;47577;43.610;25.010;2023-04-10T08:04:19;100790.09;;;13.54;59.56
61682;BME280;47577;43.610;25.010;2023-04-10T08:06:45;100789.22;;;13.53;59.10
61682;BME280;47577;43.610;25.010;2023-04-10T08:09:11;100788.00;;;13.62;58.95
61682;BME280;47577;43.610;25.010;2023-04-10T08:11:36;100794.59;;;13.76;58.12
61682;BME280;47577;43.610;25.010;2023-04-10T08:14:02;100792.41;;;13.63;57.48
61682;BME280;47577;43.610;25.010;2023-04-10T08:16:34;100787.31;;;13.57;57.32
61682;BME280;47577;43.610;25.010;2023-04-10T08:19:00;100786.50;;;13.55;58.28
61682;BME280;47577;43.610;25.010;2023-04-10T08:21:28;100783.88;;;13.53;60.34
61682;BME280;47577;43.610;25.010;2023-04-10T08:23:55;100800.59;;;13.59;58.85
61682;BME280;47577;43.610;25.010;2023-04-10T08:26:21;100800.47;;;13.62;59.03
61682;BME280;47577;43.610;25.010;2023-04-10T08:28:48;100802.66;;;13.74;58.18
61682;BME280;47577;43.610;25.010;2023-04-10T08:31:19;100783.41;;;13.66;59.04
61682;BME280;47577;43.610;25.010;2023-04-10T08:33:45;100791.19;;;13.72;60.91
61682;BME280;47577;43.610;25.010;2023-04-10T08:36:11;100784.22;;;13.68;59.13
61682;BME280;47577;43.610;25.010;2023-04-10T08:38:38;100779.09;;;13.62;58.28
61682;BME280;47577;43.610;25.010;2023-04-10T08:41:05;100785.41;;;13.61;60.67
61682;BME280;47577;43.610;25.010;2023-04-10T08:43:30;100782.34;;;13.70;60.09
61682;BME280;47577;43.610;25.010;2023-04-10T08:45:57;100785.91;;;13.70;61.78
61682;BME280;47577;43.610;25.010;2023-04-10T08:48:37;100764.03;;;13.61;59.81
61682;BME280;47577;43.610;25.010;2023-04-10T08:51:06;100777.50;;;13.58;61.74
61682;BME280;47577;43.610;25.010;2023-04-10T08:53:38;100780.34;;;13.75;59.78
61682;BME280;47577;43.610;25.010;2023-04-10T08:56:06;100775.16;;;13.93;60.85
61682;BME280;47577;43.610;25.010;2023-04-10T08:58:32;100753.34;;;14.03;60.54
61682;BME280;47577;43.610;25.010;2023-04-10T09:00:58;100755.09;;;14.04;59.83
61682;BME280;47577;43.610;25.010;2023-04-10T09:03:26;100754.59;;;14.15;60.60
61682;BME280;47577;43.610;25.010;2023-04-10T09:05:52;100762.50;;;14.39;60.26
61682;BME280;47577;43.610;25.010;2023-04-10T09:08:18;100749.72;;;14.45;58.68
61682;BME280;47577;43.610;25.010;2023-04-10T09:10:44;100749.25;;;14.56;60.26
61682;BME280;47577;43.610;25.010;2023-04-10T09:13:10;100750.47;;;14.70;58.19
61682;BME280;47577;43.610;25.010;2023-04-10T09:15:55;100744.25;;;14.69;57.98
61682;BME280;47577;43.610;25.010;2023-04-10T09:18:21;100742.84;;;14.60;59.70
61682;BME280;47577;43.610;25.010;2023-04-10T09:20:47;100744.53;;;14.63;58.51
61682;BME280;47577;43.610;25.010;2023-04-10T09:23:20;100733.84;;;14.63;59.88
61682;BME280;47577;43.610;25.010;2023-04-10T09:25:48;100731.47;;;14.55;60.99
61682;BME280;47577;43.610;25.010;2023-04-10T09:28:14;100732.25;;;14.78;59.50
61682;BME280;47577;43.610;25.010;2023-04-10T09:30:41;100734.06;;;14.77;59.39
61682;BME280;47577;43.610;25.010;2023-04-10T09:33:24;100729.47;;;15.00;60.07
61682;BME280;47577;43.610;25.010;2023-04-10T09:35:58;100726.91;;;14.97;58.68
61682;BME280;47577;43.610;25.010;2023-04-10T09:38:28;100714.09;;;15.04;59.80
61682;BME280;47577;43.610;25.010;2023-04-10T09:41:05;100722.34;;;15.18;60.70
61682;BME280;47577;43.610;25.010;2023-04-10T09:43:32;100715.16;;;15.38;57.55
61682;BME280;47577;43.610;25.010;2023-04-10T09:45:58;100703.50;;;15.39;57.55
61682;BME280;47577;43.610;25.010;2023-04-10T09:48:24;100700.59;;;15.43;59.28
61682;BME280;47577;43.610;25.010;2023-04-10T09:50:53;100698.94;;;15.58;59.92
61682;BME280;47577;43.610;25.010;2023-04-10T09:53:19;100696.19;;;15.79;58.46
61682;BME280;47577;43.610;25.010;2023-04-10T09:55:47;100696.97;;;15.98;56.95
61682;BME280;47577;43.610;25.010;2023-04-10T09:58:14;100690.00;;;16.12;55.41
61682;BME280;47577;43.610;25.010;2023-04-10T10:00:44;100685.28;;;16.17;51.70
61682;BME280;47577;43.610;25.010;2023-04-10T10:03:15;100676.94;;;16.39;55.59
61682;BME280;47577;43.610;25.010;2023-04-10T10:05:49;100672.69;;;16.52;50.51
61682;BME280;47577;43.610;25.010;2023-04-10T10:08:16;100673.97;;;16.27;52.71
61682;BME280;47577;43.610;25.010;2023-04-10T10:10:47;100668.22;;;16.35;52.13
61682;BME280;47577;43.610;25.010;2023-04-10T10:13:28;100665.28;;;16.40;51.56
61682;BME280;47577;43.610;25.010;2023-04-10T10:16:08;100664.81;;;16.32;49.95
61682;BME280;47577;43.610;25.010;2023-04-10T10:21:42;100650.94;;;16.57;51.37
61682;BME280;47577;43.610;25.010;2023-04-10T10:24:08;100640.84;;;16.62;51.05
61682;BME280;47577;43.610;25.010;2023-04-10T10:26:35;100648.91;;;16.94;49.12
61682;BME280;47577;43.610;25.010;2023-04-10T10:29:05;100641.66;;;16.96;49.13
61682;BME280;47577;43.610;25.010;2023-04-10T10:31:33;100645.38;;;17.09;48.56
61682;BME280;47577;43.610;25.010;2023-04-10T10:34:02;100628.63;;;17.20;49.78
61682;BME280;47577;43.610;25.010;2023-04-10T10:36:30;100627.16;;;17.30;48.92
61682;BME280;47577;43.610;25.010;2023-04-10T10:41:37;100628.22;;;17.58;49.24
61682;BME280;47577;43.610;25.010;2023-04-10T10:44:13;100631.97;;;17.70;47.10
61682;BME280;47577;43.610;25.010;2023-04-10T10:46:50;100621.50;;;17.65;47.17
61682;BME280;47577;43.610;25.010;2023-04-10T10:49:16;100621.19;;;17.55;45.31
61682;BME280;47577;43.610;25.010;2023-04-10T10:51:44;100612.94;;;17.59;45.67
61682;BME280;47577;43.610;25.010;2023-04-10T10:54:46;100607.69;;;17.71;48.72
61682;BME280;47577;43.610;25.010;2023-04-10T10:57:47;100606.88;;;17.55;48.10
61682;BME280;47577;43.610;25.010;2023-04-10T11:00:14;100591.91;;;17.65;45.74
61682;BME280;47577;43.610;25.010;2023-04-10T11:02:40;100597.16;;;17.83;46.14
61682;BME280;47577;43.610;25.010;2023-04-10T11:05:06;100596.34;;;17.97;45.19
61682;BME280;47577;43.610;25.010;2023-04-10T11:13:39;100593.97;;;18.91;40.97
61682;BME280;47577;43.610;25.010;2023-04-10T11:16:07;100585.88;;;18.91;42.31
61682;BME280;47577;43.610;25.010;2023-04-10T11:21:21;100598.84;;;17.39;46.02
61682;BME280;47577;43.610;25.010;2023-04-10T11:28:58;100584.94;;;16.03;48.80
61682;BME280;47577;43.610;25.010;2023-04-10T11:31:25;100575.31;;;16.17;49.86
61682;BME280;47577;43.610;25.010;2023-04-10T11:34:07;100577.81;;;15.86;50.75
61682;BME280;47577;43.610;25.010;2023-04-10T11:36:34;100583.75;;;15.41;49.82
61682;BME280;47577;43.610;25.010;2023-04-10T11:39:07;100573.88;;;16.43;52.36
61682;BME280;47577;43.610;25.010;2023-04-10T11:41:35;100563.44;;;16.86;48.58
61682;BME280;47577;43.610;25.010;2023-04-10T11:44:04;100572.16;;;17.36;53.34
61682;BME280;47577;43.610;25.010;2023-04-10T11:46:35;100568.56;;;17.51;52.44
61682;BME280;47577;43.610;25.010;2023-04-10T11:49:04;100557.25;;;17.46;54.01
61682;BME280;47577;43.610;25.010;2023-04-10T11:51:31;100571.16;;;17.23;53.31
61682;BME280;47577;43.610;25.010;2023-04-10T11:54:11;100560.22;;;16.95;52.63
61682;BME280;47577;43.610;25.010;2023-04-10T11:56:39;100564.97;;;16.58;51.61
61682;BME280;47577;43.610;25.010;2023-04-10T11:59:06;100560.44;;;15.78;52.42
61682;BME280;47577;43.610;25.010;2023-04-10T12:01:38;100557.75;;;16.27;52.02
61682;BME280;47577;43.610;25.010;2023-04-10T12:04:18;100540.19;;;16.21;51.35
61682;BME280;47577;43.610;25.010;2023-04-10T12:06:50;100548.97;;;16.41;51.27
61682;BME280;47577;43.610;25.010;2023-04-10T12:09:18;100541.75;;;16.41;49.48
61682;BME280;47577;43.610;25.010;2023-04-10T12:11:53;100537.50;;;16.37;49.44
61682;BME280;47577;43.610;25.010;2023-04-10T12:14:20;100525.28;;;16.16;48.15
61682;BME280;47577;43.610;25.010;2023-04-10T12:16:47;100529.19;;;16.26;48.10
61682;BME280;47577;43.610;25.010;2023-04-10T12:19:13;100517.88;;;16.69;49.81
61682;BME280;47577;43.610;25.010;2023-04-10T12:21:40;100505.44;;;17.14;48.31
61682;BME280;47577;43.610;25.010;2023-04-10T12:24:07;100494.59;;;17.30;44.29
61682;BME280;47577;43.610;25.010;2023-04-10T12:26:33;100508.56;;;17.36;43.45
61682;BME280;47577;43.610;25.010;2023-04-10T12:28:59;100500.31;;;17.54;44.12
61682;BME280;47577;43.610;25.010;2023-04-10T12:31:35;100494.25;;;17.50;44.17
61682;BME280;47577;43.610;25.010;2023-04-10T12:34:02;100486.41;;;17.76;45.10
61682;BME280;47577;43.610;25.010;2023-04-10T12:36:30;100478.63;;;17.71;42.81
61682;BME280;47577;43.610;25.010;2023-04-10T12:39:01;100469.59;;;17.87;42.66
61682;BME280;47577;43.610;25.010;2023-04-10T12:41:29;100481.06;;;18.05;43.71
61682;BME280;47577;43.610;25.010;2023-04-10T12:44:09;100466.22;;;18.26;42.12
61682;BME280;47577;43.610;25.010;2023-04-10T12:46:36;100456.69;;;18.35;40.18
61682;BME280;47577;43.610;25.010;2023-04-10T12:49:15;100469.81;;;18.13;40.94
61682;BME280;47577;43.610;25.010;2023-04-10T12:51:48;100462.13;;;17.92;40.90
61682;BME280;47577;43.610;25.010;2023-04-10T12:54:31;100464.22;;;17.72;40.33
61682;BME280;47577;43.610;25.010;2023-04-10T12:56:58;100460.69;;;17.72;42.75
61682;BME280;47577;43.610;25.010;2023-04-10T12:59:25;100456.09;;;17.88;39.70
61682;BME280;47577;43.610;25.010;2023-04-10T13:01:51;100438.75;;;18.07;40.37
61682;BME280;47577;43.610;25.010;2023-04-10T13:04:17;100435.09;;;18.22;40.27
61682;BME280;47577;43.610;25.010;2023-04-10T13:06:44;100450.25;;;18.23;41.69
61682;BME280;47577;43.610;25.010;2023-04-10T13:09:11;100448.06;;;18.16;39.94
61682;BME280;47577;43.610;25.010;2023-04-10T13:11:37;100441.44;;;18.21;39.77
61682;BME280;47577;43.610;25.010;2023-04-10T13:14:03;100433.34;;;18.21;40.61
61682;BME280;47577;43.610;25.010;2023-04-10T13:16:29;100444.13;;;18.49;39.03
61682;BME280;47577;43.610;25.010;2023-04-10T13:18:54;100441.09;;;18.68;37.42
61682;BME280;47577;43.610;25.010;2023-04-10T13:21:20;100426.09;;;18.91;37.91